sensor_id;sensor_type;location;lat;lon;timestamp;P1;durP1;ratioP1;P2;durP2;ratioP2
16416;SDS011;8317;52.186;5.688;2023-07-24T00:00:01;3.53;;;2.72;;
16416;SDS011;8317;52.186;5.688;2023-07-24T00:02:30;4.05;;;3.05;;
16416;SDS011;8317;52.186;5.688;2023-07-24T00:04:56;4.88;;;3.50;;
16416;SDS011;8317;52.186;5.688;2023-07-24T00:07:23;5.53;;;3.58;;
16416;SDS011;8317;52.186;5.688;2023-07-24T00:09:50;6.25;;;3.25;;
16416;SDS011;8317;52.186;5.688;2023-07-24T00:12:17;5.03;;;2.97;;
16416;SDS011;8317;52.186;5.688;2023-07-24T00:14:44;5.18;;;3.90;;
16416;SDS011;8317;52.186;5.688;2023-07-24T00:17:11;6.35;;;4.03;;
16416;SDS011;8317;52.186;5.688;2023-07-24T00:19:39;7.13;;;2.90;;
16416;SDS011;8317;52.186;5.688;2023-07-24T00:22:06;5.57;;;3.85;;
16416;SDS011;8317;52.186;5.688;2023-07-24T00:24:33;5.32;;;3.33;;
16416;SDS011;8317;52.186;5.688;2023-07-24T00:27:00;5.07;;;3.83;;
16416;SDS011;8317;52.186;5.688;2023-07-24T00:29:28;5.22;;;3.28;;
16416;SDS011;8317;52.186;5.688;2023-07-24T00:31:54;4.47;;;3.28;;
16416;SDS011;8317;52.186;5.688;2023-07-24T00:34:21;5.90;;;4.40;;
16416;SDS011;8317;52.186;5.688;2023-07-24T00:36:50;6.15;;;4.35;;
16416;SDS011;8317;52.186;5.688;2023-07-24T00:39:16;5.13;;;3.60;;
16416;SDS011;8317;52.186;5.688;2023-07-24T00:41:43;5.78;;;4.00;;
16416;SDS011;8317;52.186;5.688;2023-07-24T00:44:10;6.88;;;3.80;;
16416;SDS011;8317;52.186;5.688;2023-07-24T00:46:37;5.57;;;4.13;;
16416;SDS011;8317;52.186;5.688;2023-07-24T00:49:04;4.78;;;3.47;;
16416;SDS011;8317;52.186;5.688;2023-07-24T00:51:31;4.15;;;3.53;;
16416;SDS011;8317;52.186;5.688;2023-07-24T00:54:01;6.72;;;4.32;;
16416;SDS011;8317;52.186;5.688;2023-07-24T00:56:29;7.20;;;4.13;;
16416;SDS011;8317;52.186;5.688;2023-07-24T00:58:57;7.57;;;4.32;;
16416;SDS011;8317;52.186;5.688;2023-07-24T01:01:25;5.40;;;3.92;;
16416;SDS011;8317;52.186;5.688;2023-07-24T01:03:52;5.78;;;4.03;;
16416;SDS011;8317;52.186;5.688;2023-07-24T01:06:19;6.28;;;3.67;;
16416;SDS011;8317;52.186;5.688;2023-07-24T01:08:46;5.22;;;3.85;;
16416;SDS011;8317;52.186;5.688;2023-07-24T01:11:16;6.50;;;4.22;;
16416;SDS011;8317;52.186;5.688;2023-07-24T01:13:48;6.93;;;3.83;;
16416;SDS011;8317;52.186;5.688;2023-07-24T01:16:22;6.35;;;3.80;;
16416;SDS011;8317;52.186;5.688;2023-07-24T01:18:50;6.05;;;4.50;;
16416;SDS011;8317;52.186;5.688;2023-07-24T01:21:23;5.70;;;4.05;;
16416;SDS011;8317;52.186;5.688;2023-07-24T01:24:03;5.70;;;4.00;;
16416;SDS011;8317;52.186;5.688;2023-07-24T01:26:42;5.00;;;3.70;;
16416;SDS011;8317;52.186;5.688;2023-07-24T01:29:10;5.88;;;3.88;;
16416;SDS011;8317;52.186;5.688;2023-07-24T01:31:37;4.78;;;3.63;;
16416;SDS011;8317;52.186;5.688;2023-07-24T01:34:04;6.47;;;4.47;;
16416;SDS011;8317;52.186;5.688;2023-07-24T01:36:30;5.78;;;4.22;;
16416;SDS011;8317;52.186;5.688;2023-07-24T01:38:57;6.32;;;4.68;;
16416;SDS011;8317;52.186;5.688;2023-07-24T01:41:25;5.72;;;3.92;;
16416;SDS011;8317;52.186;5.688;2023-07-24T01:43:54;6.88;;;4.80;;
16416;SDS011;8317;52.186;5.688;2023-07-24T01:46:21;6.97;;;5.13;;
16416;SDS011;8317;52.186;5.688;2023-07-24T01:48:48;7.15;;;4.80;;
16416;SDS011;8317;52.186;5.688;2023-07-24T01:51:15;7.43;;;4.68;;
16416;SDS011;8317;52.186;5.688;2023-07-24T01:53:42;5.38;;;4.03;;
16416;SDS011;8317;52.186;5.688;2023-07-24T01:56:09;6.82;;;4.35;;
16416;SDS011;8317;52.186;5.688;2023-07-24T01:58:36;6.45;;;4.38;;
16416;SDS011;8317;52.186;5.688;2023-07-24T02:01:04;7.00;;;4.43;;
16416;SDS011;8317;52.186;5.688;2023-07-24T02:03:31;7.95;;;4.97;;
16416;SDS011;8317;52.186;5.688;2023-07-24T02:05:58;6.47;;;5.07;;
16416;SDS011;8317;52.186;5.688;2023-07-24T02:08:25;6.18;;;4.75;;
16416;SDS011;8317;52.186;5.688;2023-07-24T02:10:51;7.22;;;4.72;;
16416;SDS011;8317;52.186;5.688;2023-07-24T02:13:18;6.13;;;4.72;;
16416;SDS011;8317;52.186;5.688;2023-07-24T02:15:45;6.88;;;4.25;;
16416;SDS011;8317;52.186;5.688;2023-07-24T02:18:13;6.93;;;4.88;;
16416;SDS011;8317;52.186;5.688;2023-07-24T02:20:40;7.20;;;5.40;;
16416;SDS011;8317;52.186;5.688;2023-07-24T02:23:08;7.05;;;4.80;;
16416;SDS011;8317;52.186;5.688;2023-07-24T02:25:36;7.13;;;5.40;;
16416;SDS011;8317;52.186;5.688;2023-07-24T02:28:03;6.60;;;4.43;;
16416;SDS011;8317;52.186;5.688;2023-07-24T02:30:30;6.43;;;4.47;;
16416;SDS011;8317;52.186;5.688;2023-07-24T02:32:57;7.75;;;4.70;;
16416;SDS011;8317;52.186;5.688;2023-07-24T02:35:25;6.20;;;4.68;;
16416;SDS011;8317;52.186;5.688;2023-07-24T02:37:52;7.70;;;4.78;;
16416;SDS011;8317;52.186;5.688;2023-07-24T02:40:19;6.45;;;4.40;;
16416;SDS011;8317;52.186;5.688;2023-07-24T02:42:46;6.90;;;4.50;;
16416;SDS011;8317;52.186;5.688;2023-07-24T02:45:13;6.72;;;4.68;;
16416;SDS011;8317;52.186;5.688;2023-07-24T02:47:40;6.05;;;4.25;;
16416;SDS011;8317;52.186;5.688;2023-07-24T02:50:07;5.20;;;4.20;;
16416;SDS011;8317;52.186;5.688;2023-07-24T02:52:36;5.63;;;4.10;;
16416;SDS011;8317;52.186;5.688;2023-07-24T02:55:03;6.20;;;4.35;;
16416;SDS011;8317;52.186;5.688;2023-07-24T02:57:30;8.52;;;4.15;;
16416;SDS011;8317;52.186;5.688;2023-07-24T02:59:57;6.60;;;4.28;;
16416;SDS011;8317;52.186;5.688;2023-07-24T03:02:24;5.05;;;4.50;;
16416;SDS011;8317;52.186;5.688;2023-07-24T03:04:51;6.00;;;4.82;;
16416;SDS011;8317;52.186;5.688;2023-07-24T03:07:18;8.40;;;4.43;;
16416;SDS011;8317;52.186;5.688;2023-07-24T03:09:46;5.30;;;4.28;;
16416;SDS011;8317;52.186;5.688;2023-07-24T03:12:13;4.63;;;3.50;;
16416;SDS011;8317;52.186;5.688;2023-07-24T03:14:40;7.13;;;4.30;;
16416;SDS011;8317;52.186;5.688;2023-07-24T03:17:07;6.57;;;3.63;;
16416;SDS011;8317;52.186;5.688;2023-07-24T03:19:34;6.00;;;4.35;;
16416;SDS011;8317;52.186;5.688;2023-07-24T03:22:01;5.40;;;4.30;;
16416;SDS011;8317;52.186;5.688;2023-07-24T03:24:28;5.70;;;3.95;;
16416;SDS011;8317;52.186;5.688;2023-07-24T03:26:56;6.15;;;3.97;;
16416;SDS011;8317;52.186;5.688;2023-07-24T03:29:23;6.18;;;4.35;;
16416;SDS011;8317;52.186;5.688;2023-07-24T03:31:50;5.10;;;3.65;;
16416;SDS011;8317;52.186;5.688;2023-07-24T03:34:17;5.30;;;4.03;;
16416;SDS011;8317;52.186;5.688;2023-07-24T03:36:43;5.80;;;4.00;;
16416;SDS011;8317;52.186;5.688;2023-07-24T03:39:11;5.22;;;4.03;;
16416;SDS011;8317;52.186;5.688;2023-07-24T03:41:38;6.85;;;3.50;;
16416;SDS011;8317;52.186;5.688;2023-07-24T03:44:07;5.45;;;3.55;;
16416;SDS011;8317;52.186;5.688;2023-07-24T03:46:34;4.95;;;3.88;;
16416;SDS011;8317;52.186;5.688;2023-07-24T03:49:01;6.75;;;4.68;;
16416;SDS011;8317;52.186;5.688;2023-07-24T03:51:28;7.40;;;4.10;;
16416;SDS011;8317;52.186;5.688;2023-07-24T03:53:55;4.88;;;3.55;;
16416;SDS011;8317;52.186;5.688;2023-07-24T03:56:21;7.78;;;3.70;;
16416;SDS011;8317;52.186;5.688;2023-07-24T03:58:48;9.18;;;3.33;;
16416;SDS011;8317;52.186;5.688;2023-07-24T04:01:17;5.75;;;4.00;;
16416;SDS011;8317;52.186;5.688;2023-07-24T04:03:43;6.07;;;3.97;;
16416;SDS011;8317;52.186;5.688;2023-07-24T04:06:11;6.60;;;4.35;;
16416;SDS011;8317;52.186;5.688;2023-07-24T04:08:38;6.00;;;3.70;;
16416;SDS011;8317;52.186;5.688;2023-07-24T04:11:04;5.18;;;3.70;;
16416;SDS011;8317;52.186;5.688;2023-07-24T04:13:31;6.05;;;3.60;;
16416;SDS011;8317;52.186;5.688;2023-07-24T04:15:58;7.60;;;4.32;;
16416;SDS011;8317;52.186;5.688;2023-07-24T04:18:26;7.53;;;3.88;;
16416;SDS011;8317;52.186;5.688;2023-07-24T04:20:54;5.75;;;3.58;;
16416;SDS011;8317;52.186;5.688;2023-07-24T04:23:22;7.63;;;4.22;;
16416;SDS011;8317;52.186;5.688;2023-07-24T04:25:49;8.63;;;4.30;;
16416;SDS011;8317;52.186;5.688;2023-07-24T04:28:16;6.43;;;4.38;;
16416;SDS011;8317;52.186;5.688;2023-07-24T04:30:43;7.95;;;4.25;;
16416;SDS011;8317;52.186;5.688;2023-07-24T04:33:09;9.13;;;4.93;;
16416;SDS011;8317;52.186;5.688;2023-07-24T04:35:38;6.93;;;4.50;;
16416;SDS011;8317;52.186;5.688;2023-07-24T04:38:04;10.13;;;3.75;;
16416;SDS011;8317;52.186;5.688;2023-07-24T04:40:32;10.07;;;5.00;;
16416;SDS011;8317;52.186;5.688;2023-07-24T04:42:59;7.60;;;4.35;;
16416;SDS011;8317;52.186;5.688;2023-07-24T04:45:25;8.32;;;4.07;;
16416;SDS011;8317;52.186;5.688;2023-07-24T04:47:52;7.95;;;4.82;;
16416;SDS011;8317;52.186;5.688;2023-07-24T04:50:19;9.90;;;4.32;;
16416;SDS011;8317;52.186;5.688;2023-07-24T04:52:47;8.35;;;5.07;;
16416;SDS011;8317;52.186;5.688;2023-07-24T04:55:14;7.50;;;5.03;;
16416;SDS011;8317;52.186;5.688;2023-07-24T04:57:41;9.07;;;5.13;;
16416;SDS011;8317;52.186;5.688;2023-07-24T05:00:09;7.93;;;4.75;;
16416;SDS011;8317;52.186;5.688;2023-07-24T05:02:36;8.55;;;4.60;;
16416;SDS011;8317;52.186;5.688;2023-07-24T05:05:03;8.18;;;4.45;;
16416;SDS011;8317;52.186;5.688;2023-07-24T05:07:31;7.10;;;4.65;;
16416;SDS011;8317;52.186;5.688;2023-07-24T05:09:59;9.55;;;4.93;;
16416;SDS011;8317;52.186;5.688;2023-07-24T05:12:26;6.82;;;4.18;;
16416;SDS011;8317;52.186;5.688;2023-07-24T05:14:53;7.80;;;4.40;;
16416;SDS011;8317;52.186;5.688;2023-07-24T05:17:20;7.07;;;4.28;;
16416;SDS011;8317;52.186;5.688;2023-07-24T05:19:47;6.72;;;4.07;;
16416;SDS011;8317;52.186;5.688;2023-07-24T05:22:14;7.72;;;4.72;;
16416;SDS011;8317;52.186;5.688;2023-07-24T05:24:41;6.63;;;4.22;;
16416;SDS011;8317;52.186;5.688;2023-07-24T05:27:09;8.50;;;4.00;;
16416;SDS011;8317;52.186;5.688;2023-07-24T05:29:37;8.52;;;4.53;;
16416;SDS011;8317;52.186;5.688;2023-07-24T05:32:04;7.82;;;4.15;;
16416;SDS011;8317;52.186;5.688;2023-07-24T05:34:32;8.35;;;5.38;;
16416;SDS011;8317;52.186;5.688;2023-07-24T05:36:59;10.85;;;5.03;;
16416;SDS011;8317;52.186;5.688;2023-07-24T05:39:26;8.27;;;4.28;;
16416;SDS011;8317;52.186;5.688;2023-07-24T05:41:52;7.13;;;4.55;;
16416;SDS011;8317;52.186;5.688;2023-07-24T05:44:21;9.82;;;4.55;;
16416;SDS011;8317;52.186;5.688;2023-07-24T05:46:48;11.40;;;4.55;;
16416;SDS011;8317;52.186;5.688;2023-07-24T05:49:15;8.82;;;5.00;;
16416;SDS011;8317;52.186;5.688;2023-07-24T05:51:42;9.18;;;4.45;;
16416;SDS011;8317;52.186;5.688;2023-07-24T05:54:09;9.00;;;5.40;;
16416;SDS011;8317;52.186;5.688;2023-07-24T05:56:36;8.55;;;4.90;;
16416;SDS011;8317;52.186;5.688;2023-07-24T05:59:02;7.97;;;5.10;;
16416;SDS011;8317;52.186;5.688;2023-07-24T06:01:31;9.50;;;4.95;;
16416;SDS011;8317;52.186;5.688;2023-07-24T06:03:58;8.60;;;5.30;;
16416;SDS011;8317;52.186;5.688;2023-07-24T06:06:24;8.73;;;4.50;;
16416;SDS011;8317;52.186;5.688;2023-07-24T06:08:53;7.13;;;4.82;;
16416;SDS011;8317;52.186;5.688;2023-07-24T06:11:20;11.30;;;5.25;;
16416;SDS011;8317;52.186;5.688;2023-07-24T06:13:47;11.02;;;4.97;;
16416;SDS011;8317;52.186;5.688;2023-07-24T06:16:14;8.93;;;4.50;;
16416;SDS011;8317;52.186;5.688;2023-07-24T06:18:43;8.55;;;5.10;;
16416;SDS011;8317;52.186;5.688;2023-07-24T06:21:10;12.50;;;5.15;;
16416;SDS011;8317;52.186;5.688;2023-07-24T06:23:37;9.52;;;5.10;;
16416;SDS011;8317;52.186;5.688;2023-07-24T06:26:04;7.47;;;4.70;;
16416;SDS011;8317;52.186;5.688;2023-07-24T06:28:31;8.02;;;4.88;;
16416;SDS011;8317;52.186;5.688;2023-07-24T06:30:58;8.57;;;5.15;;
16416;SDS011;8317;52.186;5.688;2023-07-24T06:33:25;8.90;;;5.28;;
16416;SDS011;8317;52.186;5.688;2023-07-24T06:35:53;11.90;;;5.43;;
16416;SDS011;8317;52.186;5.688;2023-07-24T06:38:20;12.00;;;4.97;;
16416;SDS011;8317;52.186;5.688;2023-07-24T06:40:47;7.90;;;5.07;;
16416;SDS011;8317;52.186;5.688;2023-07-24T06:43:14;8.55;;;4.35;;
16416;SDS011;8317;52.186;5.688;2023-07-24T06:45:41;12.48;;;4.30;;
16416;SDS011;8317;52.186;5.688;2023-07-24T06:48:08;7.40;;;4.55;;
16416;SDS011;8317;52.186;5.688;2023-07-24T06:50:35;6.28;;;3.40;;
16416;SDS011;8317;52.186;5.688;2023-07-24T06:53:03;12.35;;;5.47;;
16416;SDS011;8317;52.186;5.688;2023-07-24T06:55:30;8.95;;;4.22;;
16416;SDS011;8317;52.186;5.688;2023-07-24T06:57:57;10.30;;;5.20;;
16416;SDS011;8317;52.186;5.688;2023-07-24T07:00:24;7.95;;;5.38;;
16416;SDS011;8317;52.186;5.688;2023-07-24T07:02:51;7.70;;;4.57;;
16416;SDS011;8317;52.186;5.688;2023-07-24T07:05:18;8.13;;;5.32;;
16416;SDS011;8317;52.186;5.688;2023-07-24T07:07:45;9.98;;;5.07;;
16416;SDS011;8317;52.186;5.688;2023-07-24T07:10:13;6.82;;;4.78;;
16416;SDS011;8317;52.186;5.688;2023-07-24T07:12:40;8.00;;;4.70;;
16416;SDS011;8317;52.186;5.688;2023-07-24T07:15:07;9.48;;;4.78;;
16416;SDS011;8317;52.186;5.688;2023-07-24T07:17:34;6.82;;;4.72;;
16416;SDS011;8317;52.186;5.688;2023-07-24T07:20:01;8.27;;;4.63;;
16416;SDS011;8317;52.186;5.688;2023-07-24T07:22:28;8.25;;;4.28;;
16416;SDS011;8317;52.186;5.688;2023-07-24T07:24:55;6.13;;;4.20;;
16416;SDS011;8317;52.186;5.688;2023-07-24T07:27:24;10.05;;;4.97;;
16416;SDS011;8317;52.186;5.688;2023-07-24T07:29:50;10.95;;;5.40;;
16416;SDS011;8317;52.186;5.688;2023-07-24T07:32:17;7.32;;;3.95;;
16416;SDS011;8317;52.186;5.688;2023-07-24T07:34:44;11.20;;;4.97;;
16416;SDS011;8317;52.186;5.688;2023-07-24T07:37:11;7.60;;;4.45;;
16416;SDS011;8317;52.186;5.688;2023-07-24T07:39:38;9.27;;;4.60;;
16416;SDS011;8317;52.186;5.688;2023-07-24T07:42:05;11.50;;;5.10;;
16416;SDS011;8317;52.186;5.688;2023-07-24T07:44:33;11.27;;;4.50;;
16416;SDS011;8317;52.186;5.688;2023-07-24T07:47:00;10.00;;;5.43;;
16416;SDS011;8317;52.186;5.688;2023-07-24T07:49:27;11.35;;;5.55;;
16416;SDS011;8317;52.186;5.688;2023-07-24T07:51:54;10.68;;;5.10;;
16416;SDS011;8317;52.186;5.688;2023-07-24T07:54:21;10.88;;;4.90;;
16416;SDS011;8317;52.186;5.688;2023-07-24T07:56:48;7.97;;;5.25;;
16416;SDS011;8317;52.186;5.688;2023-07-24T07:59:15;6.95;;;4.95;;
16416;SDS011;8317;52.186;5.688;2023-07-24T08:01:43;6.15;;;4.22;;
16416;SDS011;8317;52.186;5.688;2023-07-24T08:04:11;10.27;;;4.90;;
16416;SDS011;8317;52.186;5.688;2023-07-24T08:06:38;6.28;;;4.18;;
16416;SDS011;8317;52.186;5.688;2023-07-24T08:09:04;6.03;;;4.10;;
16416;SDS011;8317;52.186;5.688;2023-07-24T08:11:32;7.60;;;4.05;;
16416;SDS011;8317;52.186;5.688;2023-07-24T08:13:58;8.25;;;4.72;;
16416;SDS011;8317;52.186;5.688;2023-07-24T08:16:25;6.63;;;4.20;;
16416;SDS011;8317;52.186;5.688;2023-07-24T08:18:54;6.35;;;4.70;;
16416;SDS011;8317;52.186;5.688;2023-07-24T08:21:20;6.30;;;4.57;;
16416;SDS011;8317;52.186;5.688;2023-07-24T08:23:47;7.10;;;4.75;;
16416;SDS011;8317;52.186;5.688;2023-07-24T08:26:14;9.00;;;4.72;;
16416;SDS011;8317;52.186;5.688;2023-07-24T08:28:41;9.50;;;4.50;;
16416;SDS011;8317;52.186;5.688;2023-07-24T08:31:08;6.72;;;4.43;;
16416;SDS011;8317;52.186;5.688;2023-07-24T08:33:35;9.68;;;4.97;;
16416;SDS011;8317;52.186;5.688;2023-07-24T08:36:04;5.30;;;4.25;;
16416;SDS011;8317;52.186;5.688;2023-07-24T08:38:32;7.68;;;4.07;;
16416;SDS011;8317;52.186;5.688;2023-07-24T08:40:59;13.48;;;5.18;;
16416;SDS011;8317;52.186;5.688;2023-07-24T08:43:27;6.93;;;5.22;;
16416;SDS011;8317;52.186;5.688;2023-07-24T08:45:56;7.60;;;4.78;;
16416;SDS011;8317;52.186;5.688;2023-07-24T08:48:24;7.38;;;5.25;;
16416;SDS011;8317;52.186;5.688;2023-07-24T08:50:55;6.57;;;4.45;;
16416;SDS011;8317;52.186;5.688;2023-07-24T08:53:24;6.65;;;4.22;;
16416;SDS011;8317;52.186;5.688;2023-07-24T08:55:52;8.32;;;4.68;;
16416;SDS011;8317;52.186;5.688;2023-07-24T08:58:20;6.05;;;4.15;;
16416;SDS011;8317;52.186;5.688;2023-07-24T09:00:47;5.68;;;3.80;;
16416;SDS011;8317;52.186;5.688;2023-07-24T09:03:16;8.05;;;4.32;;
16416;SDS011;8317;52.186;5.688;2023-07-24T09:05:43;8.10;;;4.13;;
16416;SDS011;8317;52.186;5.688;2023-07-24T09:08:11;5.63;;;3.58;;
16416;SDS011;8317;52.186;5.688;2023-07-24T09:10:39;5.28;;;3.47;;
16416;SDS011;8317;52.186;5.688;2023-07-24T09:13:06;7.53;;;4.28;;
16416;SDS011;8317;52.186;5.688;2023-07-24T09:15:42;7.32;;;3.85;;
16416;SDS011;8317;52.186;5.688;2023-07-24T09:18:10;8.48;;;4.57;;
16416;SDS011;8317;52.186;5.688;2023-07-24T09:20:38;7.60;;;4.40;;
16416;SDS011;8317;52.186;5.688;2023-07-24T09:23:06;6.75;;;5.03;;
16416;SDS011;8317;52.186;5.688;2023-07-24T09:25:34;11.30;;;4.82;;
16416;SDS011;8317;52.186;5.688;2023-07-24T09:28:10;6.63;;;4.25;;
16416;SDS011;8317;52.186;5.688;2023-07-24T09:30:37;6.85;;;4.28;;
16416;SDS011;8317;52.186;5.688;2023-07-24T09:33:05;8.77;;;4.30;;
16416;SDS011;8317;52.186;5.688;2023-07-24T09:35:32;8.52;;;4.00;;
16416;SDS011;8317;52.186;5.688;2023-07-24T09:38:03;9.55;;;4.53;;
16416;SDS011;8317;52.186;5.688;2023-07-24T09:40:37;7.07;;;4.55;;
16416;SDS011;8317;52.186;5.688;2023-07-24T09:43:17;8.23;;;5.22;;
16416;SDS011;8317;52.186;5.688;2023-07-24T09:45:45;8.95;;;4.68;;
16416;SDS011;8317;52.186;5.688;2023-07-24T09:48:14;6.93;;;4.70;;
16416;SDS011;8317;52.186;5.688;2023-07-24T09:50:42;6.18;;;4.13;;
16416;SDS011;8317;52.186;5.688;2023-07-24T09:53:12;5.82;;;4.18;;
16416;SDS011;8317;52.186;5.688;2023-07-24T09:55:43;5.85;;;3.85;;
16416;SDS011;8317;52.186;5.688;2023-07-24T09:58:17;9.60;;;4.65;;
16416;SDS011;8317;52.186;5.688;2023-07-24T10:00:46;7.80;;;4.88;;
16416;SDS011;8317;52.186;5.688;2023-07-24T10:03:16;5.85;;;4.82;;
16416;SDS011;8317;52.186;5.688;2023-07-24T10:05:45;6.03;;;4.30;;
16416;SDS011;8317;52.186;5.688;2023-07-24T10:08:12;7.22;;;5.05;;
16416;SDS011;8317;52.186;5.688;2023-07-24T10:10:41;7.45;;;4.60;;
16416;SDS011;8317;52.186;5.688;2023-07-24T10:13:09;9.02;;;4.97;;
16416;SDS011;8317;52.186;5.688;2023-07-24T10:15:39;7.68;;;4.55;;
16416;SDS011;8317;52.186;5.688;2023-07-24T10:18:07;7.80;;;5.10;;
16416;SDS011;8317;52.186;5.688;2023-07-24T10:20:35;6.53;;;4.38;;
16416;SDS011;8317;52.186;5.688;2023-07-24T10:23:03;5.78;;;3.35;;
16416;SDS011;8317;52.186;5.688;2023-07-24T10:25:31;5.45;;;3.83;;
16416;SDS011;8317;52.186;5.688;2023-07-24T10:28:02;5.13;;;4.05;;
16416;SDS011;8317;52.186;5.688;2023-07-24T10:30:32;6.53;;;4.35;;
16416;SDS011;8317;52.186;5.688;2023-07-24T10:33:05;6.05;;;3.97;;
16416;SDS011;8317;52.186;5.688;2023-07-24T10:35:37;5.78;;;3.85;;
16416;SDS011;8317;52.186;5.688;2023-07-24T10:38:05;5.95;;;4.25;;
16416;SDS011;8317;52.186;5.688;2023-07-24T10:40:32;5.40;;;3.53;;
16416;SDS011;8317;52.186;5.688;2023-07-24T10:42:59;6.40;;;3.65;;
16416;SDS011;8317;52.186;5.688;2023-07-24T10:45:37;9.60;;;3.88;;
16416;SDS011;8317;52.186;5.688;2023-07-24T10:48:06;8.82;;;4.28;;
16416;SDS011;8317;52.186;5.688;2023-07-24T10:50:40;6.93;;;3.72;;
16416;SDS011;8317;52.186;5.688;2023-07-24T10:53:08;3.78;;;3.42;;
16416;SDS011;8317;52.186;5.688;2023-07-24T10:55:35;4.80;;;3.42;;
16416;SDS011;8317;52.186;5.688;2023-07-24T10:58:02;6.05;;;3.67;;
16416;SDS011;8317;52.186;5.688;2023-07-24T11:00:29;6.70;;;3.85;;
16416;SDS011;8317;52.186;5.688;2023-07-24T11:02:56;7.25;;;3.78;;
16416;SDS011;8317;52.186;5.688;2023-07-24T11:05:24;5.18;;;3.88;;
16416;SDS011;8317;52.186;5.688;2023-07-24T11:07:51;6.93;;;4.03;;
16416;SDS011;8317;52.186;5.688;2023-07-24T11:10:18;5.60;;;2.95;;
16416;SDS011;8317;52.186;5.688;2023-07-24T11:12:46;6.38;;;3.90;;
16416;SDS011;8317;52.186;5.688;2023-07-24T11:15:14;5.60;;;3.58;;
16416;SDS011;8317;52.186;5.688;2023-07-24T11:17:41;8.35;;;3.60;;
16416;SDS011;8317;52.186;5.688;2023-07-24T11:20:09;4.30;;;3.38;;
16416;SDS011;8317;52.186;5.688;2023-07-24T11:22:42;7.57;;;3.58;;
16416;SDS011;8317;52.186;5.688;2023-07-24T11:25:10;4.90;;;3.47;;
16416;SDS011;8317;52.186;5.688;2023-07-24T11:27:38;5.85;;;3.75;;
16416;SDS011;8317;52.186;5.688;2023-07-24T11:30:07;8.82;;;3.97;;
16416;SDS011;8317;52.186;5.688;2023-07-24T11:32:34;9.20;;;4.03;;
16416;SDS011;8317;52.186;5.688;2023-07-24T11:35:01;4.70;;;3.00;;
16416;SDS011;8317;52.186;5.688;2023-07-24T11:37:29;8.32;;;4.00;;
16416;SDS011;8317;52.186;5.688;2023-07-24T11:39:58;8.50;;;3.75;;
16416;SDS011;8317;52.186;5.688;2023-07-24T11:42:29;6.93;;;3.35;;
16416;SDS011;8317;52.186;5.688;2023-07-24T11:44:59;5.05;;;3.40;;
16416;SDS011;8317;52.186;5.688;2023-07-24T11:47:27;6.22;;;3.70;;
16416;SDS011;8317;52.186;5.688;2023-07-24T11:49:58;8.88;;;4.35;;
16416;SDS011;8317;52.186;5.688;2023-07-24T11:52:36;6.78;;;3.72;;
16416;SDS011;8317;52.186;5.688;2023-07-24T11:55:06;9.45;;;4.20;;
16416;SDS011;8317;52.186;5.688;2023-07-24T11:57:34;8.32;;;4.47;;
16416;SDS011;8317;52.186;5.688;2023-07-24T12:00:01;8.27;;;3.85;;
16416;SDS011;8317;52.186;5.688;2023-07-24T12:02:29;5.93;;;4.10;;
16416;SDS011;8317;52.186;5.688;2023-07-24T12:04:58;7.38;;;4.13;;
16416;SDS011;8317;52.186;5.688;2023-07-24T12:07:32;6.28;;;4.72;;
16416;SDS011;8317;52.186;5.688;2023-07-24T12:10:00;6.38;;;4.68;;
16416;SDS011;8317;52.186;5.688;2023-07-24T12:12:39;7.65;;;4.38;;
16416;SDS011;8317;52.186;5.688;2023-07-24T12:15:09;10.57;;;6.03;;
16416;SDS011;8317;52.186;5.688;2023-07-24T12:17:36;9.18;;;5.63;;
16416;SDS011;8317;52.186;5.688;2023-07-24T12:20:04;10.20;;;5.35;;
16416;SDS011;8317;52.186;5.688;2023-07-24T12:22:33;7.88;;;4.75;;
16416;SDS011;8317;52.186;5.688;2023-07-24T12:25:00;7.43;;;5.10;;
16416;SDS011;8317;52.186;5.688;2023-07-24T12:27:27;11.43;;;5.70;;
16416;SDS011;8317;52.186;5.688;2023-07-24T12:29:56;6.95;;;5.40;;
16416;SDS011;8317;52.186;5.688;2023-07-24T12:32:23;8.52;;;5.30;;
16416;SDS011;8317;52.186;5.688;2023-07-24T12:34:50;9.02;;;5.90;;
16416;SDS011;8317;52.186;5.688;2023-07-24T12:37:19;8.55;;;5.60;;
16416;SDS011;8317;52.186;5.688;2023-07-24T12:39:46;10.95;;;6.78;;
16416;SDS011;8317;52.186;5.688;2023-07-24T12:42:14;8.30;;;5.68;;
16416;SDS011;8317;52.186;5.688;2023-07-24T12:44:41;7.65;;;6.10;;
16416;SDS011;8317;52.186;5.688;2023-07-24T12:47:10;9.35;;;5.93;;
16416;SDS011;8317;52.186;5.688;2023-07-24T12:49:37;7.90;;;4.63;;
16416;SDS011;8317;52.186;5.688;2023-07-24T12:52:04;9.45;;;5.55;;
16416;SDS011;8317;52.186;5.688;2023-07-24T12:54:32;5.85;;;4.72;;
16416;SDS011;8317;52.186;5.688;2023-07-24T12:56:59;8.20;;;5.93;;
16416;SDS011;8317;52.186;5.688;2023-07-24T12:59:26;7.47;;;4.80;;
16416;SDS011;8317;52.186;5.688;2023-07-24T13:01:53;9.35;;;5.28;;
16416;SDS011;8317;52.186;5.688;2023-07-24T13:04:22;9.02;;;5.35;;
16416;SDS011;8317;52.186;5.688;2023-07-24T13:06:49;7.18;;;4.80;;
16416;SDS011;8317;52.186;5.688;2023-07-24T13:09:17;8.70;;;5.43;;
16416;SDS011;8317;52.186;5.688;2023-07-24T13:11:45;8.80;;;4.90;;
16416;SDS011;8317;52.186;5.688;2023-07-24T13:14:13;5.75;;;4.90;;
16416;SDS011;8317;52.186;5.688;2023-07-24T13:16:40;9.88;;;5.72;;
16416;SDS011;8317;52.186;5.688;2023-07-24T13:19:08;6.90;;;5.03;;
16416;SDS011;8317;52.186;5.688;2023-07-24T13:21:36;7.93;;;4.85;;
16416;SDS011;8317;52.186;5.688;2023-07-24T13:24:04;8.15;;;5.47;;
16416;SDS011;8317;52.186;5.688;2023-07-24T13:26:31;8.13;;;4.72;;
16416;SDS011;8317;52.186;5.688;2023-07-24T13:28:59;8.18;;;5.18;;
16416;SDS011;8317;52.186;5.688;2023-07-24T13:31:26;3.30;;;2.50;;
16416;SDS011;8317;52.186;5.688;2023-07-24T13:33:54;4.25;;;2.60;;
16416;SDS011;8317;52.186;5.688;2023-07-24T13:36:21;3.03;;;2.03;;
16416;SDS011;8317;52.186;5.688;2023-07-24T13:38:49;3.03;;;1.98;;
16416;SDS011;8317;52.186;5.688;2023-07-24T13:41:17;2.78;;;2.58;;
16416;SDS011;8317;52.186;5.688;2023-07-24T13:43:44;7.10;;;2.90;;
16416;SDS011;8317;52.186;5.688;2023-07-24T13:46:11;4.00;;;2.88;;
16416;SDS011;8317;52.186;5.688;2023-07-24T13:48:37;4.78;;;2.80;;
16416;SDS011;8317;52.186;5.688;2023-07-24T13:51:04;4.78;;;3.35;;
16416;SDS011;8317;52.186;5.688;2023-07-24T13:53:31;6.25;;;3.70;;
16416;SDS011;8317;52.186;5.688;2023-07-24T13:55:59;5.25;;;3.35;;
16416;SDS011;8317;52.186;5.688;2023-07-24T13:58:27;5.72;;;3.20;;
16416;SDS011;8317;52.186;5.688;2023-07-24T14:00:54;7.82;;;4.38;;
16416;SDS011;8317;52.186;5.688;2023-07-24T14:03:21;5.75;;;4.18;;
16416;SDS011;8317;52.186;5.688;2023-07-24T14:05:51;7.95;;;4.43;;
16416;SDS011;8317;52.186;5.688;2023-07-24T14:08:18;6.72;;;3.95;;
16416;SDS011;8317;52.186;5.688;2023-07-24T14:10:44;5.78;;;4.43;;
16416;SDS011;8317;52.186;5.688;2023-07-24T14:13:13;6.40;;;4.68;;
16416;SDS011;8317;52.186;5.688;2023-07-24T14:15:40;12.32;;;5.70;;
16416;SDS011;8317;52.186;5.688;2023-07-24T14:18:07;6.72;;;4.25;;
16416;SDS011;8317;52.186;5.688;2023-07-24T14:20:33;8.93;;;5.70;;
16416;SDS011;8317;52.186;5.688;2023-07-24T14:23:02;8.63;;;6.07;;
16416;SDS011;8317;52.186;5.688;2023-07-24T14:25:29;11.18;;;5.35;;
16416;SDS011;8317;52.186;5.688;2023-07-24T14:27:56;8.23;;;5.90;;
16416;SDS011;8317;52.186;5.688;2023-07-24T14:30:24;6.10;;;4.72;;
16416;SDS011;8317;52.186;5.688;2023-07-24T14:32:51;10.57;;;5.53;;
16416;SDS011;8317;52.186;5.688;2023-07-24T14:35:18;10.88;;;5.65;;
16416;SDS011;8317;52.186;5.688;2023-07-24T14:37:45;8.70;;;5.03;;
16416;SDS011;8317;52.186;5.688;2023-07-24T14:40:12;7.50;;;4.85;;
16416;SDS011;8317;52.186;5.688;2023-07-24T14:42:39;7.97;;;4.95;;
16416;SDS011;8317;52.186;5.688;2023-07-24T14:45:06;7.97;;;4.72;;
16416;SDS011;8317;52.186;5.688;2023-07-24T14:47:35;8.98;;;4.35;;
16416;SDS011;8317;52.186;5.688;2023-07-24T14:50:02;9.95;;;4.43;;
16416;SDS011;8317;52.186;5.688;2023-07-24T14:52:29;9.95;;;4.57;;
16416;SDS011;8317;52.186;5.688;2023-07-24T14:54:56;7.32;;;4.68;;
16416;SDS011;8317;52.186;5.688;2023-07-24T14:57:23;7.30;;;4.45;;
16416;SDS011;8317;52.186;5.688;2023-07-24T14:59:50;10.93;;;4.75;;
16416;SDS011;8317;52.186;5.688;2023-07-24T15:02:17;4.90;;;4.05;;